Flight Track Log - Related Links

Times and Time Zones

All times are in EDT time to prevent confusion due to time zone crossing. See the FLG3729 flight status page for this flight to view local times or setup timezone preferences in your user account.

Time Position Orientation Groundspeed Altitude Reporting Facility
EDT Latitude Longitude Course Direction KTS MPH feet Rate Location/Type
Sun 12:53:08 PM 34.8303 -82.1992 North 242 278 4,200  Level Atlanta Center
Sun 12:54:00 PM 35.0236 -81.9313 51° Northeast  Level FlightAware Approximate
Sun 12:54:08 PM 34.8856 -82.1372 43° Northeast 292 336 6,200  Level Atlanta Center
Sun 12:55:00 PM 35.1097 -81.9167 North  Level FlightAware Approximate
Sun 12:55:08 PM 34.9533 -82.0647 41° Northeast 292 336 8,800  Level Atlanta Center
Sun 12:56:00 PM 35.1996 -81.9332 345° North  Level FlightAware Approximate
Sun 12:56:08 PM 35.0150 -81.9997 41° Northeast 292 336 10,800  Level Atlanta Center
Sun 12:57:00 PM 35.2913 -81.9333 North  Level FlightAware Approximate
Sun 12:57:08 PM 35.0889 -81.9344 36° Northeast 303 349 11,800  Level Atlanta Center
Sun 12:58:00 PM 35.3830 -81.9333 North  Level FlightAware Approximate
Sun 12:58:08 PM 35.1828 -81.9372 359° North 323 372 12,800  Level Atlanta Center
Sun 12:59:08 PM 35.2811 -81.9525 353° North 343 395 14,100 1,300 Climbing Atlanta Center
Sun 01:00:08 PM 35.3739 -82.0011 337° Northwest 358 412 15,400 1,300 Climbing Atlanta Center
Sun 01:01:08 PM 35.4664 -82.0447 339° North 364 419 16,700 1,150 Climbing Atlanta Center
Sun 01:02:08 PM 35.5522 -82.0681 348° North 353 406 17,700 1,000 Climbing Atlanta Center
Sun 01:03:08 PM 35.6567 -82.0681 360° North 358 412 18,700 1,050 Climbing Atlanta Center
Sun 01:04:08 PM 35.7628 -82.0656 North 369 425 19,800 1,100 Climbing Atlanta Center
Sun 01:05:08 PM 35.8692 -82.0631 North 379 436 20,900 1,050 Climbing Atlanta Center
Sun 01:06:08 PM 35.9797 -82.0631 360° North 390 449 21,900 1,350 Climbing Atlanta Center
Sun 01:07:08 PM 36.0903 -82.0628 360° North 377 434 23,600 1,600 Climbing Atlanta Center
Sun 01:08:08 PM 36.1903 -82.0603 North 356 410 25,100 1,000 Climbing Atlanta Center
Sun 01:09:08 PM 36.2758 -82.0583 North 347 399 25,600 500 Climbing Atlanta Center
Sun 01:10:08 PM 36.3781 -82.0558 North 353 406 26,100 500 Climbing Atlanta Center
Sun 01:11:08 PM 36.4844 -82.0556 360° North 368 423 26,600 497 Climbing Atlanta Center
Sun 01:12:57 PM 36.6789 -82.0519 North 391 450 27,500 494 Climbing Indianapolis Center
Sun 01:13:58 PM 36.7919 -82.0511 360° North 401 461 28,000 537 Climbing Indianapolis Center
Sun 01:15:00 PM 36.9228 -82.0503 360° North 404 465 28,600 488 Climbing Indianapolis Center
Sun 01:16:01 PM 37.0336 -82.0481 North 399 459 29,000 195 Climbing Indianapolis Center
Sun 01:17:03 PM 37.1472 -82.0467 North 407 468 29,000  Level Indianapolis Center
Sun 01:18:05 PM 37.2656 -82.0458 360° North 422 486 29,000  Level Indianapolis Center
Sun 01:19:06 PM 37.3844 -82.0447 360° North 428 493 29,000  Level Indianapolis Center
Sun 01:20:08 PM 37.5039 -82.0425 North 429 494 29,000  Level Indianapolis Center
Sun 01:21:10 PM 37.6472 -82.0406 North 439 505 29,000  Level Indianapolis Center
Sun 01:22:11 PM 37.7697 -82.0389 North 438 504 29,000  Level Indianapolis Center
Sun 01:23:13 PM 37.8942 -82.0372 North 442 509 29,000  Level Indianapolis Center
Sun 01:24:15 PM 38.0189 -82.0356 North 445 512 29,000  Level Indianapolis Center
Sun 01:25:16 PM 38.1433 -82.0347 360° North 445 512 29,000  Level Indianapolis Center
Sun 01:26:18 PM 38.2686 -82.0328 North 447 514 29,000  Level Indianapolis Center
Sun 01:27:19 PM 38.3947 -82.0306 North 450 518 29,000  Level Indianapolis Center
Sun 01:28:21 PM 38.5211 -82.0300 360° North 451 519 29,000  Level Indianapolis Center
Sun 01:29:22 PM 38.6486 -82.0278 North 452 520 29,000  Level Indianapolis Center
Sun 01:30:24 PM 38.7761 -82.0294 359° North 451 519 29,000  Level Indianapolis Center
Sun 01:31:26 PM 38.9011 -82.0503 353° North 449 517 29,000  Level Indianapolis Center
Sun 01:32:27 PM 39.0500 -82.0733 353° North 445 512 29,000  Level Indianapolis Center
Sun 01:33:29 PM 39.1742 -82.0933 353° North 447 514 29,000  Level Indianapolis Center
Sun 01:34:30 PM 39.2992 -82.1117 354° North 448 516 29,000  Level Indianapolis Center
Sun 01:35:32 PM 39.4231 -82.1328 353° North 448 516 29,000  Level Indianapolis Center
Sun 01:36:33 PM 39.5411 -82.1508 353° North 447 514 29,000  Level Indianapolis Center
Sun 01:37:35 PM 39.6656 -82.1703 353° North 446 513 29,000  Level Indianapolis Center
Sun 01:38:37 PM 39.7892 -82.1908 353° North 443 510 29,000  Level Indianapolis Center
Sun 01:39:38 PM 39.9350 -82.2142 353° North 448 516 29,000  Level Indianapolis Center
Sun 01:40:40 PM 40.0589 -82.2336 353° North 447 514 29,000  Level Indianapolis Center
Sun 01:41:42 PM 40.1833 -82.2533 353° North 447 514 29,000  Level Indianapolis Center
Sun 01:42:43 PM 40.3064 -82.2750 352° North 443 510 29,000  Level Indianapolis Center
Sun 01:43:45 PM 40.4300 -82.2944 353° North 443 510 29,000  Level Indianapolis Center
Sun 01:44:47 PM 40.5522 -82.3217 350° North 440 506 29,000  Level Indianapolis Center
Sun 01:45:48 PM 40.6733 -82.3583 347° North 439 505 29,000 -293 Level Indianapolis Center
Sun 01:46:50 PM 40.7947 -82.3936 348° North 441 507 28,400 -829 Descending Indianapolis Center
Sun 01:47:51 PM 40.9172 -82.4281 348° North 443 510 27,300 -1,067 Descending Indianapolis Center
Sun 01:48:20 PM 40.9711 -82.4478 345° North 436 502 26,800 -1,079 Descending Cleveland Center
Sun 01:49:20 PM 41.1000 -82.4844 348° North 426 490 25,700 -1,150 Descending Cleveland Center
Sun 01:50:20 PM 41.2139 -82.5181 347° North 426 490 24,500 -1,250 Descending Cleveland Center
Sun 01:51:20 PM 41.3128 -82.5928 330° Northwest 399 459 23,200 -1,650 Descending Cleveland Center
Sun 01:52:20 PM 41.3903 -82.6839 319° Northwest 387 445 21,200 -2,100 Descending Cleveland Center
Sun 01:53:00 PM 41.4411 -82.7492 316° Northwest 350 403 19,700 -2,100 Descending Cleveland Center
Sun 01:53:20 PM 41.4639 -82.7694 326° Northwest 364 419 19,100 -1,935 Descending Cleveland Center
Sun 01:54:02 PM 41.5128 -82.8292 318° Northwest 329 379 17,700 -2,000 Descending Cleveland Center
Sun 01:54:20 PM 41.5308 -82.8522 316° Northwest 336 387 17,100 -1,967 Descending Cleveland Center
Sun 01:55:03 PM 41.5819 -82.9067 321° Northwest 323 372 15,700 -2,000 Descending Cleveland Center
Sun 01:55:20 PM 41.6003 -82.9294 317° Northwest 331 381 15,100 -2,066 Descending Cleveland Center
Sun 01:56:04 PM 41.6553 -82.9956 318° Northwest 340 391 13,600 -1,700 Descending Cleveland Center
Sun 01:56:20 PM 41.6614 -83.0039 314° West 331 381 13,400 -1,475 Descending Cleveland Center
Sun 01:57:05 PM 41.7286 -83.0706 324° Northwest 325 374 12,100 -1,400 Descending Cleveland Center
Sun 01:57:20 PM 41.7325 -83.0792 301° West 331 381 12,000 -774 Descending Cleveland Center
Sun 01:58:07 PM 41.8086 -83.1350 331° Northwest 327 376 11,300 -500 Descending Cleveland Center
Sun 01:59:08 PM 41.8906 -83.1997 330° Northwest 330 380 11,100 -135 Descending Cleveland Center
Sun 02:00:20 PM 41.9725 -83.2617 331° Northwest 326 375 11,000  Descending Cleveland Center
Sun 02:01:11 PM 42.0522 -83.3208 331° Northwest 335 386 11,100  Climbing Cleveland Center
Sun 02:02:12 PM 42.1364 -83.3861 330° Northwest 307 353 11,000  Descending Cleveland Center
Sun 02:03:14 PM 42.1975 -83.4364 329° Northwest 226 260 11,100 -390 Climbing Cleveland Center
Sun 02:04:15 PM 42.2556 -83.4558 346° North 231 266 10,200 -1,180 Descending Cleveland Center
Sun 02:05:16 PM 42.3181 -83.4503 North 235 270 8,700 -1,512 Descending Cleveland Center
Sun 02:06:18 PM 42.3875 -83.4253 15° North 236 272 7,100 -1,512 Descending Cleveland Center
Sun 02:07:19 PM 42.4508 -83.3944 20° North 233 268 5,600 -1,366 Descending Cleveland Center
Sun 02:08:21 PM 42.5061 -83.3461 33° Northeast 240 276 4,300 -732 Descending Cleveland Center
Sun 02:09:22 PM 42.5536 -83.2864 43° Northeast 225 259 4,100 -197 Descending Cleveland Center

Login

Don't have an account? Register now (free) for customized features, flight alerts, and more!